This is the latest recevied weather packets stored in our database for station/object DL1DH-17. If no packets are shown the sender has not sent any weather packets the latest 10 day(s).
| Time | Temp. | Humidity | Pressure | Rain* | Wind** | Luminosity | Snow |
|---|---|---|---|---|---|---|---|
| 1777795470 | 16.67° C | 52% | 977 hPa | - | - | - | - |
| 1777794626 | 15.56° C | 56% | 977.1 hPa | - | - | - | - |
| 1777793786 | 15° C | 56% | 977 hPa | - | - | - | - |
| 1777792946 | 14.44° C | 57% | 977 hPa | - | - | - | - |
| 1777792105 | 13.89° C | 58% | 976.9 hPa | - | - | - | - |
| 1777791265 | 13.89° C | 59% | 976.8 hPa | - | - | - | - |
| 1777790425 | 12.78° C | 61% | 977.1 hPa | - | - | - | - |
| 1777789585 | 12.78° C | 60% | 976.9 hPa | - | - | - | - |
| 1777788745 | 12.78° C | 61% | 976.8 hPa | - | - | - | - |
| 1777787905 | 12.78° C | 61% | 976.8 hPa | - | - | - | - |
| 1777787065 | 13.33° C | 59% | 976.5 hPa | - | - | - | - |
| 1777786225 | 13.33° C | 58% | 976.2 hPa | - | - | - | - |
| 1777785385 | 12.78° C | 59% | 976.3 hPa | - | - | - | - |
| 1777784545 | 12.22° C | 62% | 976.4 hPa | - | - | - | - |
| 1777783704 | 11.67° C | 61% | 976.3 hPa | - | - | - | - |
| 1777782864 | 11.11° C | 63% | 976.2 hPa | - | - | - | - |
| 1777782024 | 11.11° C | 62% | 976.4 hPa | - | - | - | - |
| 1777781184 | 10.56° C | 62% | 976.4 hPa | - | - | - | - |
| 1777780344 | 10.56° C | 62% | 976.4 hPa | - | - | - | - |
| 1777779504 | 10° C | 62% | 976.4 hPa | - | - | - | - |
| 1777778664 | 10° C | 62% | 976.6 hPa | - | - | - | - |
| 1777777824 | 10° C | 61% | 976.8 hPa | - | - | - | - |
| 1777776984 | 10.56° C | 59% | 976.7 hPa | - | - | - | - |
| 1777776144 | 11.67° C | 54% | 976.3 hPa | - | - | - | - |
| 1777775304 | 11.67° C | 54% | 976.2 hPa | - | - | - | - |
* Rain since midnight (hover to see other rain measurements)
** Current wind speed in m/s (hover to see current wind gust speed)